createdAt,value
2018-10-06T00:01:26.015Z,18.73
2018-10-06T00:03:57.664Z,16.98
2018-10-06T00:06:29.514Z,16.10
2018-10-06T00:08:59.683Z,18.27
2018-10-06T00:11:31.442Z,27.10
2018-10-06T00:14:03.255Z,18.42
2018-10-06T00:16:35.471Z,30.45
2018-10-06T00:19:07.133Z,29.23
2018-10-06T00:21:39.801Z,28.40
2018-10-06T00:24:11.785Z,32.67
2018-10-06T00:26:43.369Z,27.62
2018-10-06T00:29:13.664Z,33.50
2018-10-06T00:31:43.016Z,22.25
2018-10-06T00:34:14.908Z,25.58
2018-10-06T00:36:44.992Z,29.30
2018-10-06T00:39:15.515Z,29.83
2018-10-06T00:41:47.708Z,21.42
2018-10-06T00:44:19.543Z,24.12
2018-10-06T00:46:48.202Z,23.50
2018-10-06T00:49:18.451Z,28.75
2018-10-06T00:51:48.718Z,30.75
2018-10-06T00:54:20.690Z,26.98
2018-10-06T00:56:50.863Z,14.55
2018-10-06T00:59:22.749Z,22.27
2018-10-06T01:01:53.998Z,23.90
2018-10-06T01:04:24.157Z,26.75
2018-10-06T01:06:53.107Z,29.58
2018-10-06T01:09:23.727Z,33.40
2018-10-06T01:11:55.375Z,29.67
2018-10-06T01:14:25.621Z,27.13
2018-10-06T01:16:55.918Z,18.20
2018-10-06T01:19:27.725Z,27.15
2018-10-06T01:21:59.708Z,30.37
2018-10-06T01:24:31.443Z,34.00
2018-10-06T01:27:01.655Z,26.23
2018-10-06T01:29:34.177Z,23.90
2018-10-06T01:32:07.279Z,27.52
2018-10-06T01:34:37.600Z,28.38
2018-10-06T01:37:07.678Z,28.42
2018-10-06T01:39:38.779Z,28.05
2018-10-06T01:42:09.568Z,25.85
2018-10-06T01:44:39.876Z,27.33
2018-10-06T01:47:11.603Z,22.52
2018-10-06T01:49:41.801Z,23.38
2018-10-06T01:52:13.764Z,24.73
2018-10-06T01:54:43.964Z,24.20
2018-10-06T01:57:12.638Z,22.20
2018-10-06T01:59:44.646Z,27.20
2018-10-06T02:02:15.016Z,29.17
2018-10-06T02:04:45.330Z,29.60
2018-10-06T02:07:17.400Z,32.55
2018-10-06T02:09:48.454Z,30.77
2018-10-06T02:12:18.240Z,28.00
2018-10-06T02:14:50.296Z,27.75
2018-10-06T02:17:18.911Z,30.62
2018-10-06T02:19:47.669Z,29.73
2018-10-06T02:22:17.919Z,31.27
2018-10-06T02:24:46.752Z,25.23
2018-10-06T02:27:16.862Z,32.30
2018-10-06T02:29:48.481Z,29.60
2018-10-06T02:32:20.313Z,29.27
2018-10-06T02:34:52.207Z,26.60
2018-10-06T02:37:22.523Z,25.33
2018-10-06T02:39:52.767Z,28.05
2018-10-06T02:42:24.456Z,30.30
2018-10-06T02:44:54.665Z,27.60
2018-10-06T02:47:24.812Z,26.52
2018-10-06T02:49:53.467Z,29.15
2018-10-06T02:52:22.692Z,26.80
2018-10-06T02:54:52.975Z,25.88
2018-10-06T02:57:25.009Z,23.90
2018-10-06T02:59:55.365Z,27.25
2018-10-06T03:02:25.444Z,24.35
2018-10-06T03:04:55.865Z,17.27
2018-10-06T03:07:26.661Z,19.92
2018-10-06T03:09:58.388Z,27.40
2018-10-06T03:12:28.544Z,20.17
2018-10-06T03:15:00.303Z,21.00
2018-10-06T03:17:28.853Z,22.37
2018-10-06T03:20:00.702Z,23.80
2018-10-06T03:22:29.983Z,31.05
2018-10-06T03:25:02.650Z,25.50
2018-10-06T03:27:32.948Z,30.67
2018-10-06T03:30:04.610Z,26.10
2018-10-06T03:32:33.778Z,30.73
2018-10-06T03:35:04.268Z,30.30
2018-10-06T03:37:36.375Z,35.08
2018-10-06T03:40:05.024Z,27.58
2018-10-06T03:42:35.344Z,37.67
2018-10-06T03:45:05.396Z,31.23
2018-10-06T03:47:34.582Z,31.08
2018-10-06T03:50:05.000Z,30.05
2018-10-06T03:52:33.807Z,25.95
2018-10-06T03:55:05.574Z,27.67
2018-10-06T03:57:35.918Z,30.60
2018-10-06T04:00:06.374Z,27.02
2018-10-06T04:02:35.059Z,27.65
2018-10-06T04:05:05.538Z,24.20
2018-10-06T04:07:35.812Z,23.92
2018-10-06T04:10:04.523Z,53.63
2018-10-06T04:12:36.159Z,61.28
2018-10-06T04:15:07.752Z,138.77
2018-10-06T04:17:39.856Z,21.60
2018-10-06T04:20:08.473Z,27.55
2018-10-06T04:22:38.583Z,26.20
2018-10-06T04:25:07.302Z,29.10
2018-10-06T04:27:37.648Z,200.15
2018-10-06T04:30:09.853Z,25.02
2018-10-06T04:32:40.041Z,27.33
2018-10-06T04:35:08.791Z,27.60
2018-10-06T04:37:37.598Z,28.65
2018-10-06T04:40:08.036Z,21.67
2018-10-06T04:42:39.938Z,23.60
2018-10-06T04:45:11.330Z,29.75
2018-10-06T04:47:43.097Z,31.60
2018-10-06T04:50:13.139Z,30.73
2018-10-06T04:52:41.884Z,29.52
2018-10-06T04:55:12.186Z,34.15
2018-10-06T04:57:42.338Z,32.63
2018-10-06T05:00:14.204Z,32.47
2018-10-06T05:02:45.315Z,32.45
2018-10-06T05:05:15.437Z,26.73
2018-10-06T05:07:44.329Z,31.73
2018-10-06T05:10:14.636Z,28.08
2018-10-06T05:12:46.565Z,30.25
2018-10-06T05:15:18.347Z,26.67
2018-10-06T05:17:48.045Z,33.80
2018-10-06T05:20:16.914Z,34.35
2018-10-06T05:22:45.657Z,35.85
2018-10-06T05:25:17.413Z,34.60
2018-10-06T05:27:46.115Z,32.30
2018-10-06T05:30:17.037Z,35.88
2018-10-06T05:32:45.716Z,36.63
2018-10-06T05:35:15.443Z,35.20
2018-10-06T05:37:45.775Z,38.33
2018-10-06T05:40:16.200Z,34.55
2018-10-06T05:42:48.032Z,42.97
2018-10-06T05:45:20.030Z,38.38
2018-10-06T05:47:51.873Z,31.65
2018-10-06T05:50:23.831Z,37.78
2018-10-06T05:52:54.186Z,38.95
2018-10-06T05:55:24.592Z,37.53
2018-10-06T05:57:53.343Z,35.10
2018-10-06T06:00:25.114Z,34.58
2018-10-06T06:02:55.266Z,32.72
2018-10-06T06:05:25.385Z,38.30
2018-10-06T06:07:56.977Z,33.67
2018-10-06T06:10:27.907Z,35.47
2018-10-06T06:12:58.048Z,32.58
2018-10-06T06:15:28.415Z,35.70
2018-10-06T06:18:00.430Z,28.12
2018-10-06T06:20:31.997Z,26.50
2018-10-06T06:23:02.389Z,29.83
2018-10-06T06:25:32.607Z,26.50
2018-10-06T06:28:02.815Z,23.77
2018-10-06T06:30:33.601Z,26.85
2018-10-06T06:33:02.205Z,20.70
2018-10-06T06:35:32.958Z,23.08
2018-10-06T06:38:04.664Z,18.83
2018-10-06T06:40:34.320Z,18.25
2018-10-06T06:43:06.265Z,17.77
2018-10-06T06:45:37.867Z,17.77
2018-10-06T06:48:09.824Z,15.98
2018-10-06T06:50:40.031Z,17.85
2018-10-06T06:53:10.181Z,17.10
2018-10-06T06:55:40.393Z,15.55
2018-10-06T06:58:10.507Z,16.10
2018-10-06T07:00:42.228Z,14.90
2018-10-06T07:03:14.352Z,16.90
2018-10-06T07:05:44.133Z,14.82
2018-10-06T07:08:15.968Z,17.05
2018-10-06T07:10:47.603Z,17.62
2018-10-06T07:13:17.834Z,14.60
2018-10-06T07:15:48.074Z,16.08
2018-10-06T07:18:18.607Z,15.25
2018-10-06T07:20:48.677Z,17.92
2018-10-06T07:23:20.249Z,17.42
2018-10-06T07:25:52.124Z,16.50
2018-10-06T07:28:22.560Z,14.57
2018-10-06T07:30:52.661Z,15.02
2018-10-06T07:33:21.267Z,15.18
2018-10-06T07:35:49.064Z,14.73
2018-10-06T07:38:18.507Z,15.40
2018-10-06T07:40:49.284Z,14.40
2018-10-06T07:43:20.782Z,14.52
2018-10-06T07:45:50.851Z,15.68
2018-10-06T07:48:19.410Z,15.00
2018-10-06T07:50:47.907Z,15.18
2018-10-06T07:53:18.001Z,15.35
2018-10-06T07:55:49.767Z,15.15
2018-10-06T07:58:20.003Z,14.20
2018-10-06T08:00:50.211Z,14.52
2018-10-06T08:03:21.990Z,18.55
2018-10-06T08:05:52.063Z,16.15
2018-10-06T08:08:20.664Z,13.75
2018-10-06T08:10:52.721Z,14.30
2018-10-06T08:13:21.401Z,13.52
2018-10-06T08:15:51.615Z,14.32
2018-10-06T08:18:20.217Z,14.87
2018-10-06T08:20:51.920Z,13.23
2018-10-06T08:23:20.454Z,13.10
2018-10-06T08:25:50.666Z,12.27
2018-10-06T08:28:22.208Z,14.65
2018-10-06T08:30:52.361Z,13.43
2018-10-06T08:33:22.606Z,12.88
2018-10-06T08:35:54.297Z,13.55
2018-10-06T08:38:23.374Z,14.65
2018-10-06T08:40:55.129Z,14.80
2018-10-06T08:43:25.358Z,15.02
2018-10-06T08:45:57.147Z,15.90
2018-10-06T08:48:28.968Z,15.75
2018-10-06T08:50:59.028Z,12.95
2018-10-06T08:53:29.241Z,12.35
2018-10-06T08:55:59.449Z,13.68
2018-10-06T08:58:30.963Z,15.45
2018-10-06T09:01:02.744Z,13.48
2018-10-06T09:03:33.219Z,14.73
2018-10-06T09:06:02.917Z,14.13
2018-10-06T09:08:33.089Z,14.00
2018-10-06T09:11:03.354Z,13.35
2018-10-06T09:13:33.472Z,13.30
2018-10-06T09:16:02.499Z,13.07
2018-10-06T09:18:32.805Z,13.73
2018-10-06T09:21:02.884Z,15.63
2018-10-06T09:23:33.960Z,13.07
2018-10-06T09:26:07.845Z,13.00
2018-10-06T09:28:38.075Z,12.23
2018-10-06T09:31:08.125Z,13.13
2018-10-06T09:33:37.237Z,14.75
2018-10-06T09:36:07.464Z,14.85
2018-10-06T09:38:37.688Z,12.25
2018-10-06T09:41:07.952Z,12.45
2018-10-06T09:43:38.624Z,13.30
2018-10-06T09:46:08.804Z,11.80
2018-10-06T09:48:39.135Z,12.90
2018-10-06T09:51:09.252Z,14.02
2018-10-06T09:53:37.868Z,11.30
2018-10-06T09:56:08.573Z,12.57
2018-10-06T09:58:38.894Z,11.38
2018-10-06T10:01:27.033Z,13.20
2018-10-06T10:04:10.631Z,11.98
2018-10-06T10:06:43.021Z,13.43
2018-10-06T10:09:13.673Z,12.30
2018-10-06T10:11:45.345Z,11.73
2018-10-06T10:14:13.943Z,13.65
2018-10-06T10:16:44.052Z,14.05
2018-10-06T10:19:16.637Z,11.68
2018-10-06T10:21:47.116Z,11.68
2018-10-06T10:24:15.623Z,12.52
2018-10-06T10:26:47.418Z,13.18
2018-10-06T10:29:17.443Z,12.37
2018-10-06T10:31:49.276Z,11.18
2018-10-06T10:34:19.375Z,10.85
2018-10-06T10:36:49.853Z,13.60
2018-10-06T10:39:19.909Z,12.02
2018-10-06T10:41:48.501Z,11.88
2018-10-06T10:44:18.778Z,12.18
2018-10-06T10:46:48.925Z,14.65
2018-10-06T10:49:19.862Z,11.75
2018-10-06T10:51:50.026Z,12.30
2018-10-06T10:54:21.021Z,12.18
2018-10-06T10:56:52.628Z,12.85
2018-10-06T10:59:24.380Z,12.15
2018-10-06T11:01:55.917Z,13.62
2018-10-06T11:04:27.792Z,10.77
2018-10-06T11:06:59.307Z,10.90
2018-10-06T11:09:31.177Z,12.88
2018-10-06T11:11:59.661Z,10.00
2018-10-06T11:14:31.236Z,12.05
2018-10-06T11:17:02.835Z,12.20
2018-10-06T11:19:32.921Z,12.00
2018-10-06T11:22:03.118Z,12.55
2018-10-06T11:24:33.213Z,13.57
2018-10-06T11:27:03.335Z,11.65
2018-10-06T11:29:32.571Z,11.63
2018-10-06T11:32:01.959Z,11.38
2018-10-06T11:34:30.522Z,11.27
2018-10-06T11:37:00.715Z,12.07
2018-10-06T11:39:29.253Z,13.02
2018-10-06T11:41:59.886Z,12.95
2018-10-06T11:44:30.065Z,11.40
2018-10-06T11:47:00.121Z,11.77
2018-10-06T11:49:31.888Z,12.32
2018-10-06T11:52:00.469Z,13.15
2018-10-06T11:54:30.491Z,11.38
2018-10-06T11:57:02.135Z,12.32
2018-10-06T11:59:33.902Z,12.37
2018-10-06T12:02:05.657Z,13.40
2018-10-06T12:04:37.121Z,11.88
2018-10-06T12:07:08.761Z,15.90
2018-10-06T12:09:38.957Z,12.73
2018-10-06T12:12:09.052Z,12.43
2018-10-06T12:14:40.670Z,17.98
2018-10-06T12:17:10.720Z,13.07
2018-10-06T12:19:42.442Z,12.95
2018-10-06T12:22:12.832Z,14.05
2018-10-06T12:24:44.564Z,17.83
2018-10-06T12:27:13.078Z,17.45
2018-10-06T12:29:43.152Z,13.90
2018-10-06T12:32:13.219Z,14.30
2018-10-06T12:34:44.967Z,15.35
2018-10-06T12:37:16.552Z,17.33
2018-10-06T12:39:48.045Z,14.82
2018-10-06T12:42:18.297Z,16.73
2018-10-06T12:44:49.707Z,15.52
2018-10-06T12:47:19.755Z,16.70
2018-10-06T12:49:47.760Z,19.42
2018-10-06T12:52:17.783Z,19.50
2018-10-06T12:54:47.878Z,15.55
2018-10-06T12:57:17.668Z,16.10
2018-10-06T12:59:47.821Z,20.27
2018-10-06T13:02:17.914Z,22.55
2018-10-06T13:04:46.497Z,18.12
2018-10-06T13:07:15.078Z,17.77
2018-10-06T13:09:46.753Z,19.05
2018-10-06T13:12:18.316Z,17.27
2018-10-06T13:14:50.022Z,20.75
2018-10-06T13:17:20.160Z,16.80
2018-10-06T13:19:50.205Z,17.30
2018-10-06T13:22:21.957Z,18.10
2018-10-06T13:24:52.674Z,19.48
2018-10-06T13:27:22.718Z,17.52
2018-10-06T13:29:53.289Z,17.52
2018-10-06T13:32:23.442Z,15.73
2018-10-06T13:34:51.193Z,19.10
2018-10-06T13:37:22.751Z,16.62
2018-10-06T13:39:51.362Z,18.08
2018-10-06T13:42:21.357Z,17.37
2018-10-06T13:44:51.398Z,18.77
2018-10-06T13:47:21.981Z,17.27
2018-10-06T13:49:53.682Z,16.77
2018-10-06T13:52:23.487Z,17.33
2018-10-06T13:54:53.470Z,15.82
2018-10-06T13:57:24.132Z,20.37
2018-10-06T13:59:54.261Z,18.55
2018-10-06T14:02:23.443Z,16.92
2018-10-06T14:04:53.487Z,19.23
2018-10-06T14:07:25.370Z,17.33
2018-10-06T14:09:55.638Z,20.12
2018-10-06T14:12:25.716Z,19.08
2018-10-06T14:14:55.775Z,17.60
2018-10-06T14:17:25.803Z,18.10
2018-10-06T14:19:57.559Z,16.87
2018-10-06T14:22:29.245Z,15.25
2018-10-06T14:24:59.338Z,17.45
2018-10-06T14:27:30.171Z,17.80
2018-10-06T14:30:00.220Z,18.73
2018-10-06T14:32:31.673Z,17.05
2018-10-06T14:35:01.747Z,18.37
2018-10-06T14:37:31.865Z,18.15
2018-10-06T14:40:01.923Z,15.18
2018-10-06T14:42:31.895Z,16.12
2018-10-06T14:45:02.018Z,15.32
2018-10-06T14:47:32.012Z,19.25
2018-10-06T14:50:01.913Z,18.87
2018-10-06T14:52:31.880Z,16.75
2018-10-06T14:55:01.953Z,15.77
2018-10-06T14:57:32.225Z,19.80
2018-10-06T15:00:03.928Z,18.87
2018-10-06T15:02:35.469Z,18.10
2018-10-06T15:05:04.124Z,19.80
2018-10-06T15:07:34.257Z,16.58
2018-10-06T15:10:04.344Z,18.10
2018-10-06T15:12:36.002Z,15.90
2018-10-06T15:15:07.943Z,16.25
2018-10-06T15:17:36.534Z,17.05
2018-10-06T15:20:06.677Z,18.15
2018-10-06T15:22:36.008Z,19.27
2018-10-06T15:25:05.179Z,20.17
2018-10-06T15:27:36.836Z,18.10
2018-10-06T15:30:08.465Z,19.90
2018-10-06T15:32:40.004Z,19.75
2018-10-06T15:35:08.522Z,17.73
2018-10-06T15:37:39.550Z,20.80
2018-10-06T15:40:09.661Z,18.58
2018-10-06T15:42:39.889Z,21.35
2018-10-06T15:45:12.162Z,18.73
2018-10-06T15:47:43.703Z,19.05
2018-10-06T15:50:13.920Z,19.48
2018-10-06T15:52:46.594Z,23.40
2018-10-06T15:55:16.940Z,21.15
2018-10-06T15:57:47.272Z,22.05
2018-10-06T16:00:17.388Z,20.45
2018-10-06T16:02:49.055Z,21.58
2018-10-06T16:05:19.084Z,23.15
2018-10-06T16:07:49.189Z,25.17
2018-10-06T16:10:20.848Z,23.33
2018-10-06T16:12:51.372Z,21.60
2018-10-06T16:15:22.870Z,23.05
2018-10-06T16:17:53.346Z,24.58
2018-10-06T16:20:22.736Z,25.50
2018-10-06T16:22:53.056Z,25.02
2018-10-06T16:25:23.309Z,24.67
2018-10-06T16:27:53.389Z,26.00
2018-10-06T16:30:21.998Z,22.08
2018-10-06T16:32:52.314Z,23.62
2018-10-06T16:35:23.835Z,23.25
2018-10-06T16:37:52.452Z,25.95
2018-10-06T16:40:21.657Z,27.75
2018-10-06T16:42:53.261Z,27.65
2018-10-06T16:45:24.816Z,26.37
2018-10-06T16:47:52.589Z,24.75
2018-10-06T16:50:21.615Z,29.42
2018-10-06T16:52:52.236Z,28.85
2018-10-06T16:55:22.469Z,32.08
2018-10-06T16:57:52.690Z,27.45
2018-10-06T17:00:24.261Z,31.27
2018-10-06T17:02:56.049Z,29.80
2018-10-06T17:05:25.202Z,29.40
2018-10-06T17:07:55.768Z,27.52
2018-10-06T17:10:27.421Z,30.83
2018-10-06T17:12:55.213Z,31.60
2018-10-06T17:15:25.108Z,28.55
2018-10-06T17:17:55.273Z,27.95
2018-10-06T17:20:26.791Z,28.75
2018-10-06T17:22:58.545Z,29.30
2018-10-06T17:25:27.291Z,28.75
2018-10-06T17:27:56.075Z,26.17
2018-10-06T17:30:27.848Z,27.73
2018-10-06T17:32:59.600Z,26.70
2018-10-06T17:35:31.177Z,20.40
2018-10-06T17:38:03.275Z,23.35
2018-10-06T17:40:33.349Z,24.83
2018-10-06T17:43:03.521Z,26.45
2018-10-06T17:45:33.561Z,17.00
2018-10-06T17:48:03.733Z,14.50
2018-10-06T17:50:34.043Z,20.17
2018-10-06T17:53:03.826Z,16.58
2018-10-06T17:55:35.456Z,18.48
2018-10-06T17:58:07.023Z,18.10
2018-10-06T18:00:38.684Z,19.52
2018-10-06T18:03:08.870Z,15.30
2018-10-06T18:05:40.851Z,19.35
2018-10-06T18:08:12.643Z,19.92
2018-10-06T18:10:43.983Z,16.50
2018-10-06T18:13:14.261Z,18.60
2018-10-06T18:15:45.724Z,21.77
2018-10-06T18:18:17.536Z,18.17
2018-10-06T18:20:46.290Z,20.62
2018-10-06T18:23:16.340Z,22.52
2018-10-06T18:25:46.721Z,22.50
2018-10-06T18:28:15.446Z,23.12
2018-10-06T18:30:47.268Z,20.33
2018-10-06T18:33:19.265Z,22.83
2018-10-06T18:35:48.462Z,26.45
2018-10-06T18:38:17.221Z,26.65
2018-10-06T18:40:47.537Z,30.12
2018-10-06T18:43:16.246Z,33.13
2018-10-06T18:45:48.166Z,29.12
2018-10-06T18:48:16.887Z,30.85
2018-10-06T18:50:46.412Z,29.25
2018-10-06T18:53:14.990Z,32.42
2018-10-06T18:55:45.225Z,34.95
2018-10-06T18:58:17.147Z,34.78
2018-10-06T19:00:48.836Z,33.38
2018-10-06T19:03:19.036Z,37.33
2018-10-06T19:05:49.238Z,33.30
2018-10-06T19:08:21.095Z,38.70
2018-10-06T19:10:51.448Z,40.65
2018-10-06T19:13:23.369Z,39.45
2018-10-06T19:15:51.970Z,46.53
2018-10-06T19:18:20.665Z,38.92
2018-10-06T19:20:52.389Z,46.05
2018-10-06T19:23:23.989Z,45.15
2018-10-06T19:25:55.577Z,42.62
2018-10-06T19:28:27.259Z,55.22
2018-10-06T19:30:56.621Z,48.50
2018-10-06T19:33:26.208Z,48.17
2018-10-06T19:35:56.563Z,44.03
2018-10-06T19:38:25.127Z,51.33
2018-10-06T19:40:57.607Z,51.45
2018-10-06T19:43:27.657Z,52.03
2018-10-06T19:45:57.847Z,59.15
2018-10-06T19:48:28.146Z,58.67
2018-10-06T19:50:58.352Z,61.40
2018-10-06T19:53:27.135Z,71.30
2018-10-06T19:55:57.307Z,59.72
2018-10-06T19:58:25.981Z,62.70
2018-10-06T20:00:56.282Z,62.47
2018-10-06T20:03:25.027Z,64.93
2018-10-06T20:05:56.766Z,73.95
2018-10-06T20:08:25.392Z,68.85
2018-10-06T20:10:56.894Z,74.07
2018-10-06T20:13:27.310Z,72.35
2018-10-06T20:15:57.315Z,77.15
2018-10-06T20:18:26.772Z,74.72
2018-10-06T20:20:57.049Z,82.70
2018-10-06T20:23:28.669Z,74.50
2018-10-06T20:25:58.703Z,78.53
2018-10-06T20:28:29.740Z,81.28
2018-10-06T20:31:01.515Z,93.10
2018-10-06T20:33:31.717Z,90.00
2018-10-06T20:36:02.881Z,82.95
2018-10-06T20:38:34.497Z,80.40
2018-10-06T20:41:06.479Z,84.35
2018-10-06T20:43:36.747Z,87.20
2018-10-06T20:46:06.844Z,85.30
2018-10-06T20:48:35.507Z,90.03
2018-10-06T20:51:07.399Z,77.07
2018-10-06T20:53:39.049Z,77.90
2018-10-06T20:56:09.639Z,88.43
2018-10-06T20:58:38.221Z,83.97
2018-10-06T21:01:08.570Z,86.28
2018-10-06T21:03:38.652Z,80.38
2018-10-06T21:06:08.879Z,77.15
2018-10-06T21:08:39.119Z,88.45
2018-10-06T21:11:07.691Z,101.20
2018-10-06T21:13:38.132Z,89.47
2018-10-06T21:16:06.818Z,99.13
2018-10-06T21:18:38.500Z,82.18
2018-10-06T21:21:08.732Z,82.68
2018-10-06T21:23:40.600Z,88.03
2018-10-06T21:26:12.453Z,80.05
2018-10-06T21:28:44.621Z,83.15
2018-10-06T21:31:16.592Z,73.62
2018-10-06T21:33:46.459Z,72.05
2018-10-06T21:36:18.297Z,80.22
2018-10-06T21:39:11.479Z,78.30
2018-10-06T21:41:43.433Z,79.72
2018-10-06T21:44:15.029Z,76.85
2018-10-06T21:46:45.153Z,83.90
2018-10-06T21:49:15.232Z,86.20
2018-10-06T21:51:45.351Z,74.55
2018-10-06T21:54:15.486Z,70.22
2018-10-06T21:56:47.332Z,57.70
2018-10-06T21:59:17.537Z,56.17
2018-10-06T22:01:47.882Z,47.78
2018-10-06T22:04:19.587Z,42.05
2018-10-06T22:06:49.991Z,60.63
2018-10-06T22:09:21.584Z,52.40
2018-10-06T22:11:51.947Z,46.28
2018-10-06T22:14:22.069Z,55.55
2018-10-06T22:16:52.275Z,47.97
2018-10-06T22:19:22.621Z,50.53
2018-10-06T22:21:53.200Z,44.58
2018-10-06T22:24:23.452Z,47.10
2018-10-06T22:26:53.704Z,41.67
2018-10-06T22:29:23.940Z,39.78
2018-10-06T22:31:55.588Z,27.85
2018-10-06T22:34:23.777Z,32.05
2018-10-06T22:36:55.517Z,35.15
2018-10-06T22:39:25.616Z,39.28
2018-10-06T22:41:54.231Z,35.92
2018-10-06T22:44:24.406Z,29.33
2018-10-06T22:46:54.596Z,38.25
2018-10-06T22:49:24.744Z,27.87
2018-10-06T22:51:56.895Z,24.35
2018-10-06T22:54:27.056Z,24.52
2018-10-06T22:56:57.370Z,29.65
2018-10-06T22:59:25.986Z,28.25
2018-10-06T23:01:55.484Z,28.83
2018-10-06T23:04:24.745Z,22.20
2018-10-06T23:06:54.968Z,13.70
2018-10-06T23:09:23.605Z,26.37
2018-10-06T23:11:54.325Z,22.42
2018-10-06T23:14:24.371Z,19.98
2018-10-06T23:16:55.560Z,15.90
2018-10-06T23:19:25.953Z,18.37
2018-10-06T23:21:57.748Z,14.80
2018-10-06T23:24:29.372Z,11.50
2018-10-06T23:26:59.527Z,10.23
2018-10-06T23:29:31.292Z,12.70
2018-10-06T23:32:01.645Z,9.13
2018-10-06T23:34:31.823Z,12.20
2018-10-06T23:37:03.618Z,10.63
2018-10-06T23:39:35.445Z,10.82
2018-10-06T23:42:05.596Z,7.43
2018-10-06T23:44:37.661Z,9.02
2018-10-06T23:47:09.532Z,6.05
2018-10-06T23:49:41.236Z,8.13
2018-10-06T23:52:13.141Z,8.65
2018-10-06T23:54:45.112Z,5.62
2018-10-06T23:57:15.585Z,11.43
2018-10-06T23:59:47.342Z,6.03
